KPUB/PUB METAR and TAF weather

Enter ICAO airport designator
Station Type Date Time Source
KPUB METAR 2021/09/27 07:53 UTC NOAA

KPUB 270753Z AUTO 23006KT 10SM CLR 16/01 A2997 RMK AO2 SLP082 T01560011


Station Type Date Time Source
KPUB Decoded METAR 2021/09/27 07:53 UTC NOAA

PUEBLO MEMORIAL AIRPORT, CO, United States (KPUB) 38-17N 104-30W 1420M
Sep 27, 2021 - 03:53 AM EDT / 2021.09.27 0753 UTC
Wind: from the SW (230 degrees) at 7 MPH (6 KT):0
Visibility: 10 mile(s):0
Sky conditions: clear
Temperature: 60.1 F (15.6 C)
Dew Point: 34.0 F (1.1 C)
Relative Humidity: 37%
Pressure (altimeter): 29.97 in. Hg (1014 hPa)
ob: KPUB 270753Z AUTO 23006KT 10SM CLR 16/01 A2997 RMK AO2 SLP082 T01560011
cycle: 8

Station Type Date Time Source
KPUB TAF 2021/09/27 06:30 UTC NOAA

TAF KPUB 270527Z 2706/2806 33005KT P6SM BKN250
FM271700 10007KT P6SM BKN250
FM272000 11012G22KT P6SM FEW120 OVC250
FM280200 06006KT P6SM BKN120 OVC200

Example: see airport list